Portada
METAR-TAF:

METAR-TAF

Aeropuertos :

El Aaiún, Marruecos

Aeropuerto Internacional Hassan I

latitud: 27-10N, longitud: 013-12-59W, altitud: 6 m

Observación

El informe se hizo hace 30 minutos, a las 18:00 UTC
Viento 15 kt del noreste
Temperatura 22°C
Humedad 57%
Presión 1018 hPa
Visibilidad 10 km o más
Nubes dispersas a una altura de 2000 ft
Nubes dispersas a una altura de 20000 ft

METAR: GMML 271800Z 04015KT 9999 SCT020 SCT200 22/13 Q1018 NOSIG

Hora: 19:30 (18:30 UTC)

Pronóstico

El informe se hizo hace 1 hora y 30 minutos, a las 17:00 UTC
Pronóstico válido del 27 a las 18 UTC al 28 a las 24 UTC
Viento 19 kt del norte-noreste
Visibilidad: 8000 m
Probabilidad 30%
del 28 a las 05 UTC al 28 a las 09 UTC
Visibilidad: 4000 m
Nubes dispersas a una altura de 1000 ft
neblina

TAF: GMML 271700Z 2718/2824 03019KT 8000 NSC PROB30 2805/2809 4000 BR SCT010

Observaciones y pronósticos meteorológicos de más de 4000 aeropuertos (mensajes METAR y TAF).

Los puntos amarillos y rojos representan las estaciones disponibles.

Ponga el ratón en el punto deseado para ver el nombre de la estación.

Haga clic para ver las observaciones y los pronósticos meteorológicos.

Para cambiar el mapa : haga clic en los botones verdes con una cruz de color negro para hacer un zoom, en el botón verde con un guión para alejar o en las flechas verdes para mapas adyacentes.


METAR-TAF: